Time;durP1;ratioP1;P1;durP2;ratioP2;P2;SDS_P1;SDS_P2;PMS_P1;PMS_P2;Temp;Humidity;BMP_temperature;BMP_pressure;BME280_temperature;BME280_humidity;BME280_pressure;Samples;Min_cycle;Max_cycle;Signal;HPM_P1;HPM_P2
2022/07/06 02:47:04;;;;;;;4.63;1.33;;;15.50;99.90;;;;;;5496784;23;88886;-72
2022/07/06 02:49:30;;;;;;;5.40;1.00;;;15.60;99.90;;;;;;4879291;28;87494;-72
2022/07/06 02:51:57;;;;;;;2.38;1.27;;;15.60;99.90;;;;;;4879463;28;87061;-71
2022/07/06 02:54:22;;;;;;;4.82;1.27;;;15.60;99.90;;;;;;4880758;28;87075;-72
2022/07/06 02:56:52;;;;;;;5.30;1.40;;;15.50;99.90;;;;;;4877386;28;88187;-72
2022/07/06 02:59:18;;;;;;;7.20;1.50;;;15.40;99.90;;;;;;4880936;28;87390;-72
2022/07/06 03:01:43;;;;;;;4.35;1.10;;;15.50;99.90;;;;;;4881281;28;86893;-72
2022/07/06 03:04:09;;;;;;;2.75;0.90;;;15.50;99.90;;;;;;4880979;28;86910;-72
2022/07/06 03:06:35;;;;;;;2.17;1.30;;;15.60;99.90;;;;;;4879485;28;88658;-72
2022/07/06 03:09:00;;;;;;;3.42;1.42;;;15.70;99.90;;;;;;4862697;28;88755;-72
2022/07/06 03:11:26;;;;;;;3.78;1.00;;;15.70;99.90;;;;;;4862043;28;87217;-72
2022/07/06 03:13:52;;;;;;;3.38;1.20;;;15.70;99.90;;;;;;4881061;28;86825;-72
2022/07/06 03:16:18;;;;;;;3.33;0.85;;;15.80;99.90;;;;;;4878961;28;87774;-72
2022/07/06 03:18:43;;;;;;;2.70;0.88;;;15.70;99.90;;;;;;4880384;28;87602;-73
2022/07/06 03:21:09;;;;;;;1.92;0.95;;;15.80;99.90;;;;;;4871914;28;87086;-73
2022/07/06 03:23:35;;;;;;;4.18;0.90;;;15.90;99.90;;;;;;4875126;28;86379;-73
2022/07/06 03:26:00;;;;;;;3.00;0.82;;;15.90;99.90;;;;;;4875739;28;88219;-72
2022/07/06 03:28:26;;;;;;;4.97;1.40;;;15.90;99.90;;;;;;4877044;28;87076;-72
2022/07/06 03:30:52;;;;;;;3.15;1.20;;;15.80;99.90;;;;;;4877188;28;88093;-72
2022/07/06 03:33:17;;;;;;;2.63;0.63;;;15.60;99.90;;;;;;4876122;28;87535;-72
2022/07/06 03:35:43;;;;;;;4.68;1.05;;;15.60;99.90;;;;;;4878666;28;86911;-72
2022/07/06 03:38:09;;;;;;;1.35;0.40;;;15.60;99.90;;;;;;4877854;28;87519;-72
2022/07/06 03:40:35;;;;;;;3.00;1.00;;;15.60;99.90;;;;;;4880247;28;87209;-71
2022/07/06 03:43:00;;;;;;;2.75;0.60;;;15.50;99.90;;;;;;4882657;28;86890;-72
2022/07/06 03:45:26;;;;;;;2.20;0.73;;;15.40;99.90;;;;;;4874865;28;87443;-73
2022/07/06 03:47:52;;;;;;;2.03;0.70;;;15.40;99.90;;;;;;4892400;28;87684;-72
2022/07/06 03:50:17;;;;;;;3.45;0.70;;;15.40;99.90;;;;;;4901540;28;86907;-72
2022/07/06 03:52:43;;;;;;;3.20;0.55;;;15.40;99.90;;;;;;4901474;28;86940;-72
2022/07/06 03:55:13;;;;;;;2.90;0.73;;;15.50;99.90;;;;;;4901743;28;87930;-71
2022/07/06 03:57:40;;;;;;;2.95;0.80;;;15.60;99.90;;;;;;4900233;28;87441;-72
2022/07/06 04:00:07;;;;;;;4.60;0.73;;;15.70;99.90;;;;;;4899369;28;87435;-73
2022/07/06 04:02:33;;;;;;;1.48;0.55;;;15.80;99.90;;;;;;4895848;28;86782;-72
2022/07/06 04:04:59;;;;;;;6.00;0.90;;;16.00;99.90;;;;;;4890158;28;87406;-72
2022/07/06 04:07:25;;;;;;;2.95;0.45;;;16.30;99.90;;;;;;4892540;28;86777;-72
2022/07/06 04:09:51;;;;;;;2.28;0.50;;;16.80;99.90;;;;;;4892544;28;87265;-72
2022/07/06 04:12:17;;;;;;;3.75;0.60;;;17.20;99.90;;;;;;4892694;28;86207;-73
2022/07/06 04:14:43;;;;;;;2.35;0.60;;;17.40;99.90;;;;;;4883073;28;87664;-72
2022/07/06 04:19:53;;;;;;;1.27;0.57;;;17.90;99.90;;;;;;4889908;28;88035;-71
2022/07/06 04:22:19;;;;;;;2.92;0.65;;;18.30;99.90;;;;;;4893807;28;86977;-72
2022/07/06 04:24:44;;;;;;;3.35;1.15;;;18.80;99.90;;;;;;4898553;28;87105;-71
2022/07/06 04:27:10;;;;;;;3.90;0.80;;;19.20;99.90;;;;;;4901649;28;87462;-71
2022/07/06 04:29:36;;;;;;;3.97;0.95;;;19.50;99.90;;;;;;4901673;28;87483;-72
2022/07/06 04:32:02;;;;;;;3.65;0.95;;;19.70;97.80;;;;;;4901930;28;87280;-71
2022/07/06 04:34:28;;;;;;;5.85;0.82;;;19.80;99.50;;;;;;4891100;28;87415;-71
2022/07/06 04:36:53;;;;;;;3.67;1.33;;;20.20;98.00;;;;;;4901657;28;86946;-71
2022/07/06 04:39:19;;;;;;;6.07;1.42;;;20.60;94.40;;;;;;4901624;28;86960;-72
2022/07/06 04:41:45;;;;;;;3.22;1.50;;;20.80;93.40;;;;;;4895414;28;86929;-71
2022/07/06 04:44:10;;;;;;;6.57;2.83;;;21.00;91.40;;;;;;4888919;28;87848;-74
2022/07/06 04:46:36;;;;;;;5.68;2.85;;;21.10;92.40;;;;;;4897160;28;87546;-75
2022/07/06 04:49:02;;;;;;;6.93;1.52;;;22.00;88.60;;;;;;4898757;28;87004;-74
2022/07/06 04:51:27;;;;;;;5.03;2.10;;;21.50;90.90;;;;;;4897419;28;86841;-73
2022/07/06 04:53:53;;;;;;;3.67;1.25;;;21.90;89.60;;;;;;4896945;28;87312;-75
2022/07/06 04:56:19;;;;;;;3.42;1.40;;;22.20;87.60;;;;;;4899320;28;87194;-74
2022/07/06 04:58:44;;;;;;;11.05;5.50;;;22.10;86.00;;;;;;4894128;28;86970;-74
2022/07/06 05:01:10;;;;;;;3.85;1.33;;;22.20;85.80;;;;;;4891796;28;86031;-74
2022/07/06 05:03:39;;;;;;;4.00;1.35;;;21.80;87.70;;;;;;4895736;28;87297;-75
2022/07/06 05:06:06;;;;;;;2.88;1.42;;;22.50;84.60;;;;;;4901137;28;87454;-74
2022/07/06 05:08:32;;;;;;;3.15;1.38;;;22.40;83.00;;;;;;4902331;28;88017;-76
2022/07/06 05:10:57;;;;;;;4.35;1.58;;;21.40;87.80;;;;;;4897966;28;86679;-75
2022/07/06 05:13:23;;;;;;;3.40;1.20;;;22.00;89.00;;;;;;4890690;28;87804;-74
2022/07/06 05:15:49;;;;;;;4.05;1.40;;;24.10;80.90;;;;;;4890540;28;87226;-74
2022/07/06 05:18:14;;;;;;;4.80;1.27;;;25.50;75.70;;;;;;4890079;28;89022;-73
2022/07/06 05:20:40;;;;;;;4.63;1.30;;;26.40;71.70;;;;;;4892729;28;88594;-75
2022/07/06 05:23:06;;;;;;;4.25;1.20;;;27.30;67.80;;;;;;4897623;28;87015;-71
2022/07/06 05:25:32;;;;;;;3.72;1.42;;;27.90;64.80;;;;;;4901351;28;87017;-71
2022/07/06 05:27:58;;;;;;;3.03;1.02;;;28.60;64.40;;;;;;4900546;28;87246;-69
2022/07/06 05:30:25;;;;;;;2.58;1.10;;;28.90;62.80;;;;;;4891905;28;87360;-72
2022/07/06 05:32:51;;;;;;;3.47;1.23;;;29.50;60.80;;;;;;4891717;28;87990;-72
2022/07/06 05:35:16;;;;;;;2.63;1.52;;;29.60;59.80;;;;;;4896661;28;88429;-72
2022/07/06 05:37:42;;;;;;;3.13;1.30;;;30.10;58.10;;;;;;4897781;28;87179;-71
2022/07/06 05:40:09;;;;;;;4.07;1.38;;;30.60;58.20;;;;;;4897854;28;87546;-74
2022/07/06 05:42:34;;;;;;;4.22;1.30;;;31.00;55.70;;;;;;4898057;28;87710;-73
2022/07/06 05:45:00;;;;;;;2.75;1.17;;;31.70;54.10;;;;;;4898235;28;87185;-72
2022/07/06 05:50:13;;;;;;;2.65;1.25;;;31.90;52.60;;;;;;4893934;28;86623;-71
2022/07/06 05:52:39;;;;;;;2.95;1.40;;;32.40;53.10;;;;;;4902280;28;87767;-72
2022/07/06 05:55:06;;;;;;;3.40;1.63;;;33.00;50.30;;;;;;4897990;28;87450;-73
2022/07/06 05:57:31;;;;;;;3.78;1.80;;;33.30;50.30;;;;;;4893560;28;88194;-71
2022/07/06 05:59:57;;;;;;;4.45;1.45;;;33.50;48.70;;;;;;4897001;28;86978;-71
2022/07/06 06:02:23;;;;;;;3.28;1.65;;;32.90;48.80;;;;;;4894276;28;86966;-71
2022/07/06 06:04:48;;;;;;;5.72;1.92;;;31.20;51.30;;;;;;4896729;28;87444;-73
2022/07/06 06:07:14;;;;;;;2.50;1.40;;;30.10;54.50;;;;;;4895271;28;87099;-71
2022/07/06 06:09:40;;;;;;;2.95;1.17;;;29.30;55.40;;;;;;4893181;28;87227;-71
2022/07/06 06:12:06;;;;;;;3.50;1.52;;;28.70;55.00;;;;;;4899872;28;87488;-71
2022/07/06 06:14:32;;;;;;;3.65;1.10;;;28.70;54.60;;;;;;4897710;28;86417;-71
2022/07/06 06:16:58;;;;;;;4.65;1.02;;;28.10;56.40;;;;;;4897406;28;87729;-73
2022/07/06 06:19:24;;;;;;;3.63;1.48;;;27.40;58.50;;;;;;4897797;28;86929;-71
2022/07/06 06:21:51;;;;;;;3.17;1.73;;;27.30;58.30;;;;;;4890549;28;88467;-71
2022/07/06 06:24:17;;;;;;;2.22;0.95;;;27.30;60.20;;;;;;4895877;28;89190;-73
2022/07/06 06:26:43;;;;;;;2.53;1.00;;;28.30;57.70;;;;;;4895397;28;87422;-71
2022/07/06 06:29:09;;;;;;;5.90;1.13;;;29.10;56.60;;;;;;4897628;28;87632;-73
2022/07/06 06:31:34;;;;;;;3.45;1.38;;;31.10;51.30;;;;;;4897220;28;86819;-71
2022/07/06 06:34:00;;;;;;;2.33;1.30;;;31.40;51.30;;;;;;4897178;28;87900;-72
2022/07/06 06:36:26;;;;;;;2.25;1.10;;;31.80;49.50;;;;;;4895681;28;86598;-74
2022/07/06 06:38:51;;;;;;;3.33;1.02;;;32.00;51.50;;;;;;4894852;28;86157;-72
2022/07/06 06:41:20;;;;;;;3.28;1.23;;;32.40;48.50;;;;;;4891797;28;87446;-72
2022/07/06 06:43:46;;;;;;;3.72;1.08;;;32.40;48.10;;;;;;4895032;28;86992;-73
2022/07/06 06:46:12;;;;;;;2.50;1.13;;;33.70;47.10;;;;;;4895789;28;87951;-72
2022/07/06 06:48:37;;;;;;;2.42;1.25;;;35.80;44.40;;;;;;4893730;28;87074;-72
2022/07/06 06:51:04;;;;;;;2.17;1.10;;;36.10;42.00;;;;;;4892960;28;87131;-72
2022/07/06 06:53:30;;;;;;;3.45;1.80;;;37.80;41.20;;;;;;4897681;28;87505;-72
2022/07/06 06:55:55;;;;;;;3.53;1.52;;;38.60;39.40;;;;;;4901106;28;87481;-72
2022/07/06 06:58:21;;;;;;;2.65;1.08;;;38.70;39.30;;;;;;4902231;28;87075;-73
2022/07/06 07:00:47;;;;;;;1.92;1.35;;;37.00;39.90;;;;;;4898258;28;88381;-72
2022/07/06 07:03:13;;;;;;;3.22;1.83;;;36.30;40.10;;;;;;4893168;28;87809;-73
2022/07/06 07:05:39;;;;;;;2.58;1.52;;;35.30;42.30;;;;;;4897170;28;87172;-72
2022/07/06 07:08:05;;;;;;;4.35;1.98;;;35.80;42.00;;;;;;4897732;28;87593;-72
2022/07/06 07:10:31;;;;;;;3.55;1.30;;;36.90;40.50;;;;;;4902226;28;88427;-74
2022/07/06 07:12:57;;;;;;;2.72;1.67;;;38.00;39.30;;;;;;4897820;28;87228;-73
2022/07/06 07:15:23;;;;;;;5.57;1.90;;;37.90;39.70;;;;;;4896782;28;86783;-72
2022/07/06 07:17:49;;;;;;;3.03;2.10;;;37.90;40.10;;;;;;4901026;28;87744;-72
2022/07/06 07:20:14;;;;;;;3.70;1.85;;;39.10;38.70;;;;;;4903276;28;87489;-72
2022/07/06 07:22:40;;;;;;;2.38;1.67;;;38.50;38.20;;;;;;4904302;28;88176;-74
2022/07/06 07:25:07;;;;;;;4.43;2.38;;;38.90;39.80;;;;;;4903759;28;87353;-72
2022/07/06 07:27:33;;;;;;;2.15;1.48;;;37.40;38.60;;;;;;4903139;28;86862;-73
2022/07/06 07:29:58;;;;;;;3.13;1.63;;;36.80;40.30;;;;;;4901419;28;87776;-73
2022/07/06 07:32:24;;;;;;;3.08;2.05;;;37.90;39.00;;;;;;4901040;28;87324;-75
2022/07/06 07:34:50;;;;;;;4.22;2.22;;;39.30;38.90;;;;;;4899934;28;88325;-72
2022/07/06 07:37:15;;;;;;;3.20;1.98;;;37.80;39.10;;;;;;4902162;28;87435;-73
2022/07/06 07:39:42;;;;;;;3.38;2.08;;;38.00;40.20;;;;;;4901528;28;86722;-72
2022/07/06 07:42:08;;;;;;;5.97;2.08;;;39.90;38.60;;;;;;4909257;28;87495;-73
2022/07/06 07:44:33;;;;;;;2.50;1.67;;;39.10;38.20;;;;;;4901126;28;86805;-72
2022/07/06 07:46:59;;;;;;;2.30;2.05;;;37.60;41.20;;;;;;4897421;28;86812;-72
2022/07/06 07:49:25;;;;;;;3.80;2.58;;;38.00;40.20;;;;;;4900593;28;87443;-75
2022/07/06 07:51:51;;;;;;;3.53;2.05;;;39.40;38.50;;;;;;4903533;28;86722;-72
2022/07/06 07:54:17;;;;;;;3.38;2.53;;;40.30;37.10;;;;;;4901781;28;87051;-73
2022/07/06 07:56:43;;;;;;;2.83;1.80;;;39.10;37.90;;;;;;4901439;28;87042;-73
2022/07/06 07:59:09;;;;;;;3.28;1.90;;;39.00;38.90;;;;;;4902332;28;88612;-73
2022/07/06 08:01:35;;;;;;;3.65;2.85;;;41.10;36.30;;;;;;4899653;28;89559;-73
2022/07/06 08:04:01;;;;;;;3.97;2.60;;;42.00;36.80;;;;;;4910276;28;87628;-73
2022/07/06 08:06:27;;;;;;;2.45;2.10;;;40.90;35.80;;;;;;4897592;28;87343;-74
2022/07/06 08:08:53;;;;;;;6.05;2.63;;;40.50;37.60;;;;;;4900635;28;88160;-73
2022/07/06 08:11:18;;;;;;;4.30;2.72;;;41.70;36.30;;;;;;4901103;28;86930;-73
2022/07/06 08:13:44;;;;;;;5.32;2.75;;;41.40;37.40;;;;;;4900695;28;88020;-73
2022/07/06 08:16:10;;;;;;;2.90;2.30;;;40.90;36.60;;;;;;4899843;28;86236;-74
2022/07/06 08:18:36;;;;;;;3.03;1.98;;;40.20;37.00;;;;;;4900494;28;87218;-73
2022/07/06 08:21:03;;;;;;;3.60;2.22;;;41.20;37.00;;;;;;4894826;28;87078;-72
2022/07/06 08:23:29;;;;;;;5.07;2.95;;;41.90;36.10;;;;;;4893134;28;87998;-72
2022/07/06 08:25:55;;;;;;;3.45;2.13;;;41.70;35.10;;;;;;4900521;28;87021;-72
2022/07/06 08:28:20;;;;;;;3.42;2.53;;;42.30;35.70;;;;;;4898998;28;87280;-72
2022/07/06 08:30:47;;;;;;;3.53;3.20;;;43.70;33.70;;;;;;4901461;28;87477;-72
2022/07/06 08:33:14;;;;;;;4.15;3.60;;;43.70;34.40;;;;;;4901203;28;86975;-72
2022/07/06 08:35:40;;;;;;;5.75;2.67;;;42.20;35.40;;;;;;4901522;28;87064;-73
2022/07/06 08:38:06;;;;;;;4.30;3.03;;;42.50;34.90;;;;;;4899668;28;88115;-72
2022/07/06 08:40:36;;;;;;;4.70;3.30;;;43.60;34.00;;;;;;4901257;28;88322;-72
2022/07/06 08:43:02;;;;;;;5.47;2.55;;;41.50;34.40;;;;;;4899497;28;87104;-72
2022/07/06 08:45:29;;;;;;;3.17;2.60;;;38.20;38.40;;;;;;4900331;28;87117;-71
2022/07/06 08:47:58;;;;;;;5.25;2.28;;;36.80;39.80;;;;;;4885576;28;87926;-72
2022/07/06 08:50:24;;;;;;;;;;;38.90;39.50;;;;;;4882793;28;87984;-72
2022/07/06 08:52:51;;;;;;;4.18;2.28;;;40.40;37.60;;;;;;4883580;28;86963;-72
2022/07/06 08:55:17;;;;;;;4.88;3.08;;;41.30;36.50;;;;;;4881661;28;87445;-72
2022/07/06 08:57:46;;;;;;;4.25;2.65;;;42.20;35.20;;;;;;4881031;28;88256;-72
2022/07/06 09:00:12;;;;;;;3.35;2.53;;;43.70;33.40;;;;;;4875353;28;87598;-72
2022/07/06 09:02:40;;;;;;;5.07;2.58;;;43.80;34.20;;;;;;4880651;28;86986;-72
2022/07/06 09:05:08;;;;;;;4.40;2.67;;;43.90;33.40;;;;;;4876386;28;86513;-72
2022/07/06 09:07:34;;;;;;;5.68;3.28;;;45.00;34.30;;;;;;4882029;28;88449;-72
2022/07/06 09:10:01;;;;;;;3.08;2.78;;;45.10;33.70;;;;;;4882184;28;87716;-72
2022/07/06 09:12:28;;;;;;;5.50;3.28;;;45.50;32.90;;;;;;4877384;28;88175;-72
2022/07/06 09:14:57;;;;;;;4.32;3.33;;;44.40;33.60;;;;;;4880490;28;87431;-72
2022/07/06 09:17:29;;;;;;;4.70;2.90;;;43.70;33.10;;;;;;4876985;28;86939;-72
2022/07/06 09:19:56;;;;;;;4.25;3.80;;;44.40;33.50;;;;;;4880977;28;88533;-72
2022/07/06 09:22:32;;;;;;;3.92;3.47;;;44.00;34.00;;;;;;4877631;28;88345;-73
2022/07/06 09:25:12;;;;;;;3.38;2.85;;;44.40;33.70;;;;;;4877075;28;87051;-72
2022/07/06 09:27:39;;;;;;;4.72;4.28;;;45.30;32.80;;;;;;4877205;28;88365;-72
2022/07/06 09:30:07;;;;;;;4.38;3.90;;;45.70;32.10;;;;;;4873766;28;88139;-72
2022/07/06 09:32:38;;;;;;;;;;;46.20;32.80;;;;;;4869050;28;87501;-71
2022/07/06 09:35:04;;;;;;;8.73;3.58;;;47.00;31.50;;;;;;4885168;28;87072;-73
2022/07/06 09:37:30;;;;;;;4.88;4.43;;;47.20;32.30;;;;;;4883229;28;88859;-72
2022/07/06 09:39:56;;;;;;;4.95;3.95;;;45.70;32.00;;;;;;4880339;28;88872;-73
2022/07/06 09:42:28;;;;;;;5.65;4.10;;;45.60;32.30;;;;;;4881139;28;87111;-72
2022/07/06 09:44:54;;;;;;;5.70;3.85;;;45.40;32.20;;;;;;4879916;28;87399;-73
2022/07/06 09:47:20;;;;;;;4.43;3.28;;;44.80;33.20;;;;;;4882275;28;88940;-72
2022/07/06 09:49:47;;;;;;;5.90;4.03;;;44.90;32.80;;;;;;4895943;28;87335;-72
2022/07/06 09:52:13;;;;;;;4.55;3.72;;;45.00;31.60;;;;;;4890396;28;87370;-73
2022/07/06 09:54:40;;;;;;;5.28;3.55;;;44.60;32.80;;;;;;4892553;28;85741;-72
2022/07/06 09:57:07;;;;;;;6.65;3.92;;;42.00;34.70;;;;;;4878840;28;88280;-72
2022/07/06 09:59:35;;;;;;;4.40;3.25;;;41.80;35.00;;;;;;4872197;28;87151;-73
2022/07/06 10:02:04;;;;;;;4.60;4.20;;;43.50;33.40;;;;;;4874456;28;87908;-73
2022/07/06 10:04:30;;;;;;;6.30;2.60;;;43.70;32.10;;;;;;4866713;28;87097;-73
2022/07/06 10:06:57;;;;;;;4.53;2.47;;;42.60;34.50;;;;;;4849799;28;88943;-73
2022/07/06 10:09:24;;;;;;;4.95;2.63;;;41.20;36.20;;;;;;4872213;28;87837;-73
2022/07/06 10:11:54;;;;;;;7.30;2.90;;;41.50;34.10;;;;;;4873136;28;87259;-73
2022/07/06 10:14:22;;;;;;;4.05;2.55;;;37.80;38.70;;;;;;4868412;28;87050;-73
2022/07/06 10:16:48;;;;;;;3.45;2.35;;;35.40;41.20;;;;;;4872352;28;87311;-73
2022/07/06 10:19:16;;;;;;;5.47;2.80;;;33.50;42.90;;;;;;4870962;28;86517;-73
2022/07/06 10:21:42;;;;;;;4.28;2.17;;;31.80;46.10;;;;;;4872898;28;87245;-73
2022/07/06 10:24:09;;;;;;;5.93;2.28;;;30.70;48.00;;;;;;4870851;28;88037;-73
2022/07/06 10:26:35;;;;;;;4.82;1.83;;;30.70;47.50;;;;;;4870684;28;88296;-73
2022/07/06 10:29:03;;;;;;;4.55;2.17;;;30.20;48.80;;;;;;4875750;28;87104;-73
2022/07/06 10:31:30;;;;;;;3.90;1.77;;;29.70;50.50;;;;;;4865354;28;87113;-73
2022/07/06 10:33:58;;;;;;;4.70;1.92;;;29.40;49.90;;;;;;4875396;28;86643;-73
2022/07/06 10:36:25;;;;;;;4.40;1.65;;;28.60;51.70;;;;;;4870404;28;87501;-73
2022/07/06 10:38:52;;;;;;;4.78;1.40;;;28.40;52.20;;;;;;4871889;28;87943;-73
2022/07/06 10:41:30;;;;;;;1.85;0.98;;;28.10;53.50;;;;;;4869384;28;86903;-73
2022/07/06 10:43:57;;;;;;;3.03;1.48;;;28.60;51.30;;;;;;4868244;28;86288;-73
2022/07/06 10:46:23;;;;;;;3.50;1.45;;;29.00;51.60;;;;;;4872612;28;87515;-73
2022/07/06 10:48:49;;;;;;;3.08;1.10;;;29.00;49.80;;;;;;4870133;28;87108;-73
2022/07/06 10:51:27;;;;;;;5.40;1.40;;;28.50;52.00;;;;;;4872185;28;88559;-73
2022/07/06 10:53:57;;;;;;;3.22;1.23;;;28.50;53.10;;;;;;4871825;28;87194;-73
2022/07/06 10:56:37;;;;;;;1.77;0.90;;;27.90;51.60;;;;;;4876590;28;88054;-73
2022/07/06 10:59:23;;;;;;;3.08;0.85;;;27.50;52.00;;;;;;4873287;28;86994;-73
2022/07/06 11:02:14;;;;;;;2.13;1.02;;;27.70;48.80;;;;;;4872263;28;87390;-73
2022/07/06 11:04:42;;;;;;;3.10;0.80;;;27.50;51.70;;;;;;4868915;28;88487;-72
2022/07/06 11:07:10;;;;;;;2.38;0.88;;;27.20;52.90;;;;;;4873102;28;87222;-72
2022/07/06 11:09:37;;;;;;;2.67;1.10;;;27.80;51.00;;;;;;4861640;28;86281;-71
2022/07/06 11:12:18;;;;;;;1.95;0.82;;;28.00;49.30;;;;;;4868238;28;87487;-72
2022/07/06 11:14:44;;;;;;;3.65;0.90;;;27.30;51.10;;;;;;4866157;28;87049;-72
2022/07/06 11:17:11;;;;;;;5.82;1.00;;;27.50;51.40;;;;;;4864777;28;88534;-71
2022/07/06 11:19:37;;;;;;;4.65;1.35;;;27.90;51.70;;;;;;4876838;28;87929;-72
2022/07/06 11:22:09;;;;;;;3.13;1.02;;;27.80;51.50;;;;;;4861475;28;87224;-72
2022/07/06 11:24:39;;;;;;;5.03;0.63;;;27.80;51.80;;;;;;4861635;28;86922;-72
2022/07/06 11:27:09;;;;;;;6.30;1.50;;;27.80;50.80;;;;;;4872269;28;86684;-72
2022/07/06 11:29:38;;;;;;;6.05;1.48;;;27.60;51.30;;;;;;4871780;28;87234;-71
2022/07/06 11:32:09;;;;;;;9.30;1.65;;;27.70;52.20;;;;;;4878098;28;86957;-71
2022/07/06 11:34:36;;;;;;;4.93;0.95;;;27.60;51.20;;;;;;4872132;28;86271;-72
2022/07/06 11:37:07;;;;;;;5.30;1.10;;;27.40;53.70;;;;;;4876759;28;87194;-71
2022/07/06 11:39:40;;;;;;;3.40;1.20;;;27.70;53.70;;;;;;4871987;28;87109;-71
2022/07/06 11:42:06;;;;;;;5.97;1.35;;;27.90;53.00;;;;;;4876918;28;87959;-72
2022/07/06 11:44:33;;;;;;;3.15;0.93;;;27.70;53.80;;;;;;4877324;28;86327;-71
2022/07/06 11:47:01;;;;;;;2.20;0.75;;;27.40;52.00;;;;;;4879867;28;87055;-71
2022/07/06 11:49:27;;;;;;;1.83;0.90;;;27.30;54.70;;;;;;4899102;28;86868;-71
2022/07/06 11:51:53;;;;;;;2.08;0.80;;;27.60;52.10;;;;;;4897132;28;86929;-71
2022/07/06 11:54:21;;;;;;;4.82;0.63;;;27.60;52.10;;;;;;4895768;28;87061;-71
2022/07/06 11:56:54;;;;;;;3.72;1.05;;;27.50;51.20;;;;;;4894805;28;86962;-71
2022/07/06 11:59:25;;;;;;;3.55;0.90;;;27.40;53.10;;;;;;4894512;28;86272;-71
2022/07/06 12:02:17;;;;;;;1.65;0.50;;;27.50;48.30;;;;;;4889974;28;87224;-71
2022/07/06 12:04:45;;;;;;;2.85;0.65;;;27.60;50.80;;;;;;4893826;28;87113;-71
2022/07/06 12:07:14;;;;;;;2.35;0.68;;;27.10;47.90;;;;;;4899134;28;89123;-71
2022/07/06 12:09:46;;;;;;;1.20;0.43;;;27.20;46.50;;;;;;4898333;28;88804;-72
2022/07/06 12:12:12;;;;;;;5.07;0.70;;;27.50;46.80;;;;;;4898508;28;86970;-71
2022/07/06 12:14:39;;;;;;;2.25;0.93;;;27.40;49.80;;;;;;4899991;28;86943;-72
2022/07/06 12:17:11;;;;;;;3.47;0.70;;;27.30;53.70;;;;;;4900030;28;87307;-72
2022/07/06 12:19:38;;;;;;;3.38;0.52;;;27.00;49.70;;;;;;4891249;28;87088;-72
2022/07/06 12:22:05;;;;;;;1.75;0.63;;;27.00;48.20;;;;;;4897441;28;86971;-71
2022/07/06 12:24:33;;;;;;;3.42;0.40;;;27.10;48.30;;;;;;4900227;28;85776;-72
2022/07/06 12:27:25;;;;;;;3.38;0.70;;;27.00;45.90;;;;;;4898590;28;87124;-71
2022/07/06 12:29:51;;;;;;;6.10;1.25;;;26.70;46.90;;;;;;4896323;28;87028;-72
2022/07/06 12:32:26;;;;;;;4.88;0.93;;;27.10;45.40;;;;;;4890165;28;87923;-72
2022/07/06 12:35:08;;;;;;;3.80;0.77;;;27.00;47.90;;;;;;4898047;28;87232;-72
2022/07/06 12:37:34;;;;;;;4.38;1.10;;;26.80;47.40;;;;;;4899111;28;87326;-72
2022/07/06 12:40:00;;;;;;;3.15;0.80;;;26.90;48.00;;;;;;4906847;28;86992;-72
2022/07/06 12:42:27;;;;;;;2.55;0.50;;;27.00;49.10;;;;;;4899853;28;86909;-71
2022/07/06 12:44:53;;;;;;;1.33;0.40;;;27.00;46.30;;;;;;4896929;28;87056;-71
2022/07/06 12:47:24;;;;;;;3.22;0.80;;;26.90;44.50;;;;;;4882910;28;86960;-72
2022/07/06 12:50:11;;;;;;;2.22;0.60;;;26.70;50.30;;;;;;4869831;28;87161;-71
2022/07/06 12:52:37;;;;;;;1.80;0.60;;;26.90;47.30;;;;;;4876515;28;86931;-72
2022/07/06 12:55:04;;;;;;;3.25;0.68;;;26.90;48.10;;;;;;4874943;28;87265;-72
2022/07/06 12:57:46;;;;;;;2.88;0.70;;;26.80;49.00;;;;;;4877983;28;90095;-72
2022/07/06 13:00:12;;;;;;;2.60;0.70;;;26.60;48.40;;;;;;4879923;28;89271;-72
2022/07/06 13:02:38;;;;;;;1.02;0.40;;;26.60;47.10;;;;;;4876980;28;87212;-72
2022/07/06 13:05:05;;;;;;;1.52;0.35;;;26.40;45.10;;;;;;4873875;28;87118;-72
2022/07/06 13:07:35;;;;;;;2.08;1.13;;;26.50;47.30;;;;;;4875014;28;87722;-71
2022/07/06 13:10:06;;;;;;;5.38;1.00;;;26.40;43.90;;;;;;4878276;28;87144;-71
2022/07/06 13:12:31;;;;;;;5.38;1.10;;;26.20;48.10;;;;;;4874506;28;87060;-71
2022/07/06 13:14:58;;;;;;;3.65;0.73;;;26.50;49.10;;;;;;4875836;28;86242;-71
2022/07/06 13:17:23;;;;;;;3.03;1.23;;;26.40;47.70;;;;;;4881144;28;86931;-72
2022/07/06 13:19:49;;;;;;;2.88;1.00;;;26.60;46.20;;;;;;4874399;28;87313;-71
2022/07/06 13:22:15;;;;;;;3.58;1.02;;;26.70;43.30;;;;;;4868459;28;87806;-72
2022/07/06 13:24:41;;;;;;;6.57;0.60;;;27.00;47.40;;;;;;4876607;28;86876;-71
2022/07/06 13:27:07;;;;;;;2.95;1.10;;;27.00;44.30;;;;;;4879836;28;88102;-71
2022/07/06 13:29:33;;;;;;;1.98;0.50;;;26.80;45.80;;;;;;4880669;28;87331;-71
2022/07/06 13:31:59;;;;;;;2.42;0.77;;;26.60;48.20;;;;;;4873028;28;86339;-71
2022/07/06 13:34:24;;;;;;;6.88;0.73;;;26.60;43.80;;;;;;4877649;28;86958;-72
2022/07/06 13:36:51;;;;;;;1.38;0.50;;;26.50;46.60;;;;;;4879032;28;87615;-71
2022/07/06 13:39:17;;;;;;;2.08;0.40;;;26.40;47.90;;;;;;4879334;28;87329;-71
2022/07/06 13:41:43;;;;;;;3.92;0.65;;;26.40;44.40;;;;;;4867259;28;87494;-71
2022/07/06 13:44:10;;;;;;;4.00;0.50;;;26.50;43.70;;;;;;4873829;28;87081;-71
2022/07/06 13:46:36;;;;;;;1.20;0.50;;;26.70;44.60;;;;;;4882057;28;88001;-72
2022/07/06 13:49:04;;;;;;;2.28;0.68;;;26.80;44.50;;;;;;4894431;28;87047;-71
2022/07/06 13:51:32;;;;;;;1.92;0.73;;;26.80;48.30;;;;;;4887951;28;87957;-72
2022/07/06 13:54:00;;;;;;;2.08;0.40;;;26.60;44.70;;;;;;4894489;28;86936;-72
2022/07/06 13:56:26;;;;;;;1.60;0.40;;;26.70;43.30;;;;;;4891570;28;87940;-71
2022/07/06 13:58:52;;;;;;;4.32;0.70;;;26.50;47.00;;;;;;4891865;28;87262;-71
2022/07/06 14:01:18;;;;;;;2.13;0.50;;;26.50;47.00;;;;;;4884736;28;87301;-71
2022/07/06 14:03:44;;;;;;;2.13;0.45;;;26.30;48.90;;;;;;4893432;28;86263;-71
2022/07/06 14:06:10;;;;;;;1.85;0.60;;;26.20;48.50;;;;;;4892155;28;88318;-72
2022/07/06 14:08:37;;;;;;;2.58;0.55;;;26.30;49.10;;;;;;4891824;28;87271;-71
2022/07/06 14:11:04;;;;;;;2.53;0.40;;;26.50;45.20;;;;;;4887214;28;88489;-72
2022/07/06 14:13:30;;;;;;;4.03;0.65;;;26.60;43.70;;;;;;4896675;28;87653;-72
2022/07/06 14:15:56;;;;;;;7.65;0.45;;;26.60;42.90;;;;;;4887166;28;88099;-71
2022/07/06 14:18:22;;;;;;;3.92;0.52;;;26.60;44.10;;;;;;4886744;28;88223;-72
2022/07/06 14:20:49;;;;;;;2.85;0.60;;;26.50;45.70;;;;;;4890312;28;86893;-72
2022/07/06 14:23:15;;;;;;;2.88;0.60;;;26.40;47.40;;;;;;4893613;28;87420;-71
2022/07/06 14:25:41;;;;;;;2.50;0.70;;;26.40;47.80;;;;;;4892051;28;87429;-71
2022/07/06 14:28:08;;;;;;;4.00;0.65;;;26.40;46.50;;;;;;4894507;28;86340;-72
2022/07/06 14:30:36;;;;;;;2.92;0.82;;;26.60;46.90;;;;;;4891608;28;88964;-71
2022/07/06 14:33:07;;;;;;;1.30;0.60;;;26.50;46.60;;;;;;4896601;28;87329;-72
2022/07/06 14:35:37;;;;;;;2.97;0.52;;;26.60;46.50;;;;;;4891035;28;88466;-72
2022/07/06 14:38:03;;;;;;;2.95;0.90;;;26.60;45.00;;;;;;4892383;28;87972;-71
2022/07/06 14:40:30;;;;;;;3.65;0.93;;;26.50;49.70;;;;;;4896101;28;87137;-72
2022/07/06 14:42:57;;;;;;;3.40;0.85;;;26.50;48.70;;;;;;4895865;28;86620;-71
2022/07/06 14:45:23;;;;;;;2.85;0.75;;;26.60;48.60;;;;;;4894840;28;88827;-71
2022/07/06 14:47:49;;;;;;;2.78;0.45;;;26.40;47.40;;;;;;4891334;28;88328;-72
2022/07/06 14:50:14;;;;;;;3.03;0.70;;;26.50;46.50;;;;;;4891040;28;86881;-71
2022/07/06 14:52:40;;;;;;;3.95;0.75;;;26.60;47.40;;;;;;4893163;28;86316;-71
2022/07/06 14:55:06;;;;;;;1.70;0.55;;;26.60;47.90;;;;;;4895957;28;88041;-71
2022/07/06 14:57:32;;;;;;;7.60;1.02;;;26.60;46.40;;;;;;4892158;28;87033;-71
2022/07/06 14:59:58;;;;;;;3.70;0.65;;;26.50;46.70;;;;;;4895534;28;88221;-72
2022/07/06 15:02:23;;;;;;;4.30;0.90;;;26.40;48.60;;;;;;4886613;28;87039;-72
2022/07/06 15:04:49;;;;;;;2.17;0.52;;;26.50;49.70;;;;;;4889758;28;87185;-71
2022/07/06 15:07:15;;;;;;;5.07;0.93;;;26.50;46.60;;;;;;4889484;28;89354;-72
2022/07/06 15:09:41;;;;;;;1.90;0.75;;;26.50;47.80;;;;;;4888163;28;86987;-72
2022/07/06 15:12:07;;;;;;;3.38;0.80;;;26.30;49.50;;;;;;4888956;28;87070;-71
2022/07/06 15:14:33;;;;;;;1.65;0.65;;;26.40;48.10;;;;;;4890010;28;88089;-71
2022/07/06 15:16:59;;;;;;;1.88;0.65;;;26.50;46.10;;;;;;4891494;28;86642;-71
2022/07/06 15:19:24;;;;;;;3.22;0.90;;;26.50;45.60;;;;;;4893446;28;86949;-71
2022/07/06 15:21:51;;;;;;;7.03;0.65;;;26.40;47.20;;;;;;4894234;28;87105;-72
2022/07/06 15:24:16;;;;;;;1.92;0.55;;;26.40;47.00;;;;;;4900319;28;88220;-72
2022/07/06 15:26:42;;;;;;;2.00;0.57;;;26.50;47.50;;;;;;4892383;28;88720;-72
2022/07/06 15:29:08;;;;;;;2.45;0.75;;;26.50;46.60;;;;;;4897652;28;87114;-71
2022/07/06 15:31:34;;;;;;;2.50;0.52;;;26.50;47.20;;;;;;4895392;28;87123;-71
2022/07/06 15:34:00;;;;;;;4.20;0.80;;;26.40;46.50;;;;;;4891663;28;87945;-72
2022/07/06 15:36:25;;;;;;;2.13;0.82;;;26.10;48.90;;;;;;4897920;28;87136;-72
2022/07/06 15:38:51;;;;;;;1.40;0.50;;;26.20;46.40;;;;;;4902588;28;87107;-74